Fort Smith, Arkansas
Current Conditions -  °F | °C
As of 6:01 AM on Sunday 23 Nov 2014 (Local Time) from KFSM Reporting Station
Haze Haze  
Wind Chill: 55°   Ceiling: 1400
Heat Index: 55°   Visibility: 6mi
Dew Point: 53°   Wind: 7mph
Humidity: 93%   Direction: 80°E
Pressure: 29.59"   Gusts: NA
Location:  35.38°N, 94.42°W
Report Text: KFSM 231201Z 08006KT 6SM BR BKN014 OVC022 13/12 A2959 RMK AO2 T01280117
Loading
Personal Weather Stations






























Interactive Weather Map New forecast layout! Learn more

10-Day Weather Forecast

Advertisements
Track Severe Weather on mobile